createdAt,value
2022-10-04T00:01:12.460Z,11.67
2022-10-04T00:05:18.343Z,4.43
2022-10-04T00:09:24.337Z,10.53
2022-10-04T00:13:27.865Z,5.13
2022-10-04T00:17:35.362Z,3.77
2022-10-04T00:21:58.174Z,5.10
2022-10-04T00:26:22.755Z,6.27
2022-10-04T00:30:24.533Z,7.43
2022-10-04T00:34:30.291Z,6.93
2022-10-04T00:38:32.129Z,9.67
2022-10-04T00:42:49.009Z,3.90
2022-10-04T00:46:53.065Z,3.93
2022-10-04T00:51:02.426Z,3.37
2022-10-04T00:55:08.485Z,12.67
2022-10-04T00:59:33.542Z,5.67
2022-10-04T01:03:41.352Z,6.50
2022-10-04T01:07:47.911Z,5.60
2022-10-04T01:11:59.954Z,3.83
2022-10-04T01:16:28.973Z,3.97
2022-10-04T01:20:36.748Z,4.57
2022-10-04T01:24:44.867Z,4.13
2022-10-04T01:28:46.616Z,8.33
2022-10-04T01:32:48.348Z,4.67
2022-10-04T01:36:52.802Z,7.03
2022-10-04T01:40:59.957Z,4.03
2022-10-04T01:45:13.513Z,4.23
2022-10-04T01:49:20.563Z,8.00
2022-10-04T01:53:37.070Z,3.73
2022-10-04T01:57:48.505Z,3.57
2022-10-04T02:01:55.457Z,3.77
2022-10-04T02:06:00.327Z,3.03
2022-10-04T02:10:06.152Z,4.17
2022-10-04T02:14:15.868Z,5.93
2022-10-04T02:18:20.975Z,5.00
2022-10-04T02:22:24.779Z,4.67
2022-10-04T02:26:27.203Z,3.20
2022-10-04T02:30:29.391Z,3.73
2022-10-04T02:34:31.304Z,4.67
2022-10-04T02:38:42.413Z,4.67
2022-10-04T02:43:00.344Z,3.07
2022-10-04T02:47:15.171Z,4.83
2022-10-04T02:51:19.196Z,8.90
2022-10-04T02:55:25.131Z,7.33
2022-10-04T02:59:27.292Z,4.30
2022-10-04T03:03:35.085Z,3.73
2022-10-04T03:07:37.869Z,3.77
2022-10-04T03:11:40.697Z,4.53
2022-10-04T03:15:43.257Z,4.00
2022-10-04T03:19:48.745Z,3.57
2022-10-04T03:23:52.224Z,6.70
2022-10-04T03:27:54.922Z,5.00
2022-10-04T03:31:58.172Z,4.33
2022-10-04T03:36:01.158Z,7.07
2022-10-04T03:40:08.129Z,7.70
2022-10-04T03:44:16.781Z,5.67
2022-10-04T03:48:30.287Z,4.63
2022-10-04T03:52:34.876Z,5.50
2022-10-04T03:56:37.313Z,4.33
2022-10-04T04:00:45.920Z,6.47
2022-10-04T04:04:56.426Z,5.60
2022-10-04T04:09:00.529Z,4.97
2022-10-04T04:13:11.278Z,5.80
2022-10-04T04:17:36.001Z,4.40
2022-10-04T04:21:37.790Z,3.53
2022-10-04T04:25:42.369Z,3.47
2022-10-04T04:29:52.335Z,5.10
2022-10-04T04:34:00.694Z,5.90
2022-10-04T04:38:11.557Z,4.50
2022-10-04T04:42:24.947Z,4.87
2022-10-04T04:46:28.999Z,4.47
2022-10-04T04:50:35.649Z,7.17
2022-10-04T04:54:38.794Z,11.47
2022-10-04T04:58:43.628Z,8.10
2022-10-04T05:02:58.797Z,3.97
2022-10-04T05:07:19.662Z,5.40
2022-10-04T05:11:25.093Z,6.03
2022-10-04T05:15:35.220Z,9.17
2022-10-04T05:19:39.381Z,9.93
2022-10-04T05:23:41.268Z,6.47
2022-10-04T05:27:44.924Z,3.57
2022-10-04T05:32:15.367Z,7.27
2022-10-04T05:36:32.033Z,5.70
2022-10-04T05:40:52.531Z,7.17
2022-10-04T05:44:58.133Z,6.60
2022-10-04T05:49:18.992Z,5.60
2022-10-04T05:53:33.532Z,7.93
2022-10-04T05:57:44.848Z,5.77
2022-10-04T06:02:15.952Z,6.70
2022-10-04T06:06:30.829Z,6.80
2022-10-04T06:10:47.920Z,6.77
2022-10-04T06:15:11.058Z,5.13
2022-10-04T06:19:43.556Z,10.70
2022-10-04T06:23:50.884Z,9.73
2022-10-04T06:28:08.136Z,16.27
2022-10-04T06:32:38.446Z,4.37
2022-10-04T06:37:00.099Z,5.70
2022-10-04T06:41:16.721Z,8.87
2022-10-04T06:45:45.814Z,8.90
2022-10-04T06:50:01.623Z,8.07
2022-10-04T06:54:55.161Z,7.90
2022-10-04T06:59:40.362Z,8.23
2022-10-04T07:03:53.290Z,7.83
2022-10-04T07:08:06.744Z,6.13
2022-10-04T07:12:12.463Z,7.37
2022-10-04T07:16:17.370Z,5.07
2022-10-04T07:20:33.916Z,8.80
2022-10-04T07:24:47.842Z,7.63
2022-10-04T07:29:09.482Z,10.67
2022-10-04T07:33:18.086Z,17.43
2022-10-04T07:37:21.718Z,14.90
2022-10-04T07:41:32.391Z,8.87
2022-10-04T07:45:39.944Z,8.87
2022-10-04T07:49:41.963Z,6.73
2022-10-04T07:53:59.662Z,8.50
2022-10-04T07:58:19.479Z,6.90
2022-10-04T08:03:03.376Z,6.13
2022-10-04T08:07:16.741Z,6.70
2022-10-04T08:11:49.594Z,7.77
2022-10-04T08:15:52.598Z,7.73
2022-10-04T08:20:16.062Z,14.47
2022-10-04T08:24:52.610Z,13.23
2022-10-04T08:29:32.048Z,11.37
2022-10-04T08:33:48.607Z,12.50
2022-10-04T08:38:07.464Z,14.77
2022-10-04T08:42:25.706Z,16.53
2022-10-04T08:46:53.220Z,13.30
2022-10-04T08:51:15.297Z,10.77
2022-10-04T08:55:48.116Z,9.77
2022-10-04T09:00:08.910Z,16.57
2022-10-04T09:04:32.370Z,13.77
2022-10-04T09:09:11.779Z,13.07
2022-10-04T09:13:47.621Z,12.13
2022-10-04T09:18:18.030Z,13.07
2022-10-04T09:22:33.927Z,13.80
2022-10-04T09:26:46.063Z,10.67
2022-10-04T09:31:00.335Z,11.93
2022-10-04T09:35:11.079Z,11.33
2022-10-04T09:39:54.459Z,12.73
2022-10-04T09:44:08.957Z,11.90
2022-10-04T09:48:56.303Z,9.40
2022-10-04T09:53:24.107Z,10.40
2022-10-04T09:57:56.038Z,9.47
2022-10-04T10:02:00.756Z,10.40
2022-10-04T10:06:17.637Z,16.80
2022-10-04T10:11:03.626Z,13.73
2022-10-04T10:15:42.511Z,8.87
2022-10-04T10:19:47.169Z,10.80
2022-10-04T10:23:55.920Z,9.47
2022-10-04T10:28:00.510Z,9.37
2022-10-04T10:32:23.427Z,9.77
2022-10-04T10:36:52.991Z,17.43
2022-10-04T10:41:19.127Z,11.67
2022-10-04T10:45:30.491Z,7.87
2022-10-04T10:49:56.473Z,10.70
2022-10-04T10:54:42.846Z,9.57
2022-10-04T10:59:12.622Z,9.33
2022-10-04T11:03:27.291Z,10.27
2022-10-04T11:07:33.296Z,8.20
2022-10-04T11:12:13.291Z,9.40
2022-10-04T11:16:36.985Z,10.88
2022-10-04T11:21:02.102Z,5.90
2022-10-04T11:25:12.966Z,10.77
2022-10-04T11:29:31.011Z,8.88
2022-10-04T11:33:52.881Z,12.30
2022-10-04T11:38:06.655Z,6.60
2022-10-04T11:42:45.081Z,14.90
2022-10-04T11:47:00.841Z,8.97
2022-10-04T11:51:47.925Z,9.83
2022-10-04T11:55:57.455Z,8.70
2022-10-04T12:00:12.490Z,7.37
2022-10-04T12:04:27.283Z,6.13
2022-10-04T12:08:34.125Z,8.07
2022-10-04T12:13:04.112Z,10.82
2022-10-04T12:17:38.441Z,8.03
2022-10-04T12:21:46.084Z,5.13
2022-10-04T12:25:59.817Z,4.67
2022-10-04T12:30:30.870Z,5.45
2022-10-04T12:35:05.935Z,6.72
2022-10-04T12:39:27.201Z,5.70
2022-10-04T12:44:03.157Z,5.27
2022-10-04T12:48:22.572Z,8.07
2022-10-04T12:52:27.908Z,8.13
2022-10-04T12:56:52.628Z,8.63
2022-10-04T13:01:07.736Z,7.05
2022-10-04T13:05:32.894Z,8.85
2022-10-04T13:09:48.585Z,6.90
2022-10-04T13:14:34.774Z,9.13
2022-10-04T13:18:37.274Z,6.78
2022-10-04T13:22:58.322Z,6.57
2022-10-04T13:27:15.248Z,8.60
2022-10-04T13:31:34.152Z,6.25
2022-10-04T13:35:41.803Z,7.15
2022-10-04T13:39:46.271Z,6.32
2022-10-04T13:44:21.996Z,10.07
2022-10-04T13:48:52.622Z,5.20
2022-10-04T13:53:21.310Z,5.25
2022-10-04T13:57:31.274Z,5.95
2022-10-04T14:02:04.059Z,6.22
2022-10-04T14:06:26.464Z,5.78
2022-10-04T14:10:56.296Z,7.18
2022-10-04T14:15:51.930Z,8.73
2022-10-04T14:20:08.570Z,5.03
2022-10-04T14:24:10.292Z,6.68
2022-10-04T14:28:42.438Z,6.78
2022-10-04T14:32:56.306Z,8.35
2022-10-04T14:37:16.355Z,5.95
2022-10-04T14:41:51.910Z,6.72
2022-10-04T14:46:18.631Z,8.75
2022-10-04T14:50:28.113Z,6.97
2022-10-04T14:54:35.963Z,6.05
2022-10-04T14:59:04.898Z,4.18
2022-10-04T15:03:40.902Z,5.97
2022-10-04T15:07:59.026Z,3.92
2022-10-04T15:13:05.745Z,4.65
2022-10-04T15:16:59.345Z,4.00
2022-10-04T15:21:17.084Z,4.47
2022-10-04T15:25:37.690Z,4.90
2022-10-04T15:29:51.746Z,8.18
2022-10-04T15:33:59.353Z,4.50
2022-10-04T15:38:24.030Z,5.43
2022-10-04T15:42:32.778Z,7.93
2022-10-04T15:46:44.281Z,5.68
2022-10-04T15:51:21.786Z,5.65
2022-10-04T15:55:31.421Z,6.63
2022-10-04T15:59:55.866Z,4.60
2022-10-04T16:04:41.740Z,3.77
2022-10-04T16:09:25.202Z,7.97
2022-10-04T16:13:50.180Z,7.25
2022-10-04T16:18:13.653Z,6.78
2022-10-04T16:22:34.047Z,8.02
2022-10-04T16:26:35.723Z,17.65
2022-10-04T16:30:51.727Z,14.32
2022-10-04T16:35:04.646Z,16.42
2022-10-04T16:39:29.414Z,9.68
2022-10-04T16:43:34.300Z,9.68
2022-10-04T16:47:39.484Z,13.07
2022-10-04T16:52:09.126Z,16.52
2022-10-04T16:56:29.801Z,15.82
2022-10-04T17:00:38.432Z,12.90
2022-10-04T17:04:40.198Z,11.73
2022-10-04T17:09:08.886Z,14.23
2022-10-04T17:13:25.608Z,15.93
2022-10-04T17:17:43.629Z,11.77
2022-10-04T17:21:48.390Z,11.57
2022-10-04T17:26:05.402Z,11.27
2022-10-04T17:30:46.061Z,35.90
2022-10-04T17:35:09.900Z,8.27
2022-10-04T17:39:26.187Z,6.87
2022-10-04T17:43:41.982Z,8.07
2022-10-04T17:48:24.177Z,6.93
2022-10-04T17:52:52.703Z,29.30
2022-10-04T17:57:03.436Z,27.10
2022-10-04T18:01:18.804Z,42.00
2022-10-04T18:05:26.968Z,19.83
2022-10-04T18:09:55.153Z,7.83
2022-10-04T18:14:06.310Z,9.60
2022-10-04T18:18:11.469Z,7.30
2022-10-04T18:22:14.994Z,6.57
2022-10-04T18:26:18.258Z,10.53
2022-10-04T18:30:25.471Z,7.27
2022-10-04T18:34:29.710Z,8.47
2022-10-04T18:38:34.264Z,9.50
2022-10-04T18:42:40.921Z,9.33
2022-10-04T18:46:48.319Z,8.80
2022-10-04T18:50:50.933Z,11.87
2022-10-04T18:54:55.442Z,11.23
2022-10-04T18:59:30.873Z,8.23
2022-10-04T19:03:41.303Z,7.43
2022-10-04T19:07:56.943Z,8.30
2022-10-04T19:12:32.594Z,10.40
2022-10-04T19:16:54.704Z,10.07
2022-10-04T19:21:20.701Z,12.83
2022-10-04T19:25:36.611Z,8.23
2022-10-04T19:29:51.254Z,9.70
2022-10-04T19:34:18.108Z,9.13
2022-10-04T19:38:44.706Z,9.47
2022-10-04T19:42:56.408Z,16.90
2022-10-04T19:47:06.187Z,19.60
2022-10-04T19:51:27.184Z,19.53
2022-10-04T19:55:47.761Z,14.23
2022-10-04T19:59:54.220Z,12.70
2022-10-04T20:04:23.000Z,15.77
2022-10-04T20:09:02.314Z,7.83
2022-10-04T20:13:12.215Z,10.10
2022-10-04T20:17:31.007Z,13.90
2022-10-04T20:21:33.000Z,12.70
2022-10-04T20:25:54.985Z,11.37
2022-10-04T20:30:06.314Z,12.33
2022-10-04T20:34:39.006Z,12.87
2022-10-04T20:39:02.548Z,14.70
2022-10-04T20:43:13.039Z,22.70
2022-10-04T20:47:21.676Z,11.80
2022-10-04T20:51:25.522Z,8.37
2022-10-04T20:55:30.520Z,9.40
2022-10-04T20:59:33.307Z,7.07
2022-10-04T21:03:37.842Z,7.43
2022-10-04T21:07:39.549Z,6.97
2022-10-04T21:11:46.271Z,9.87
2022-10-04T21:15:57.131Z,9.23
2022-10-04T21:19:58.865Z,8.70
2022-10-04T21:24:46.819Z,9.57
2022-10-04T21:28:53.296Z,8.40
2022-10-04T21:32:54.921Z,8.17
2022-10-04T21:36:56.641Z,10.20
2022-10-04T21:40:58.472Z,9.43
2022-10-04T21:45:00.712Z,10.13
2022-10-04T21:49:03.410Z,10.17
2022-10-04T21:53:05.128Z,8.57
2022-10-04T21:57:06.788Z,7.53
2022-10-04T22:01:08.757Z,11.73
2022-10-04T22:05:10.467Z,7.57
2022-10-04T22:09:12.150Z,11.33
2022-10-04T22:13:13.939Z,9.57
2022-10-04T22:17:15.598Z,12.63
2022-10-04T22:21:17.309Z,9.30
2022-10-04T22:25:24.343Z,8.57
2022-10-04T22:29:26.468Z,9.77
2022-10-04T22:33:36.035Z,9.27
2022-10-04T22:37:37.835Z,12.97
2022-10-04T22:41:41.141Z,9.73
2022-10-04T22:45:43.444Z,8.47
2022-10-04T22:49:49.610Z,8.13
2022-10-04T22:53:51.962Z,10.50
2022-10-04T22:57:53.719Z,6.70
2022-10-04T23:01:55.386Z,6.27
2022-10-04T23:05:57.981Z,5.93
2022-10-04T23:09:59.612Z,9.07
2022-10-04T23:14:01.338Z,6.50
2022-10-04T23:18:12.236Z,8.27
2022-10-04T23:22:17.747Z,7.10
2022-10-04T23:26:25.001Z,5.83
2022-10-04T23:30:26.716Z,5.63
2022-10-04T23:34:36.698Z,7.50
2022-10-04T23:38:38.520Z,5.30
2022-10-04T23:42:40.589Z,4.47
2022-10-04T23:46:43.554Z,5.63
2022-10-04T23:50:45.750Z,5.10
2022-10-04T23:54:52.251Z,4.53
2022-10-04T23:58:56.137Z,6.20
